Time;durP1;ratioP1;P1;durP2;ratioP2;P2;SDS_P1;SDS_P2;PMS_P1;PMS_P2;Temp;Humidity;BMP_temperature;BMP_pressure;BME280_temperature;BME280_humidity;BME280_pressure;Samples;Min_cycle;Max_cycle;Signal;HPM_P1;HPM_P2
2023/03/22 00:01:23;;;;;;;8.15;4.15;;;;;;;23.91;35.80;99593.16;4361854;32;34461;-60
2023/03/22 00:03:51;;;;;;;6.45;4.00;;;;;;;23.91;35.82;99597.78;4360807;32;33738;-58
2023/03/22 00:06:20;;;;;;;11.23;4.22;;;;;;;23.88;35.90;99601.81;4348621;32;33498;-60
2023/03/22 00:08:49;;;;;;;7.18;4.18;;;;;;;23.88;35.95;99590.09;4360894;32;34200;-65
2023/03/22 00:11:18;;;;;;;6.93;4.22;;;;;;;23.88;35.98;99598.28;4360968;32;34736;-61
2023/03/22 00:13:46;;;;;;;7.90;4.12;;;;;;;23.87;36.04;99591.97;4361939;32;34675;-59
2023/03/22 00:16:14;;;;;;;7.28;4.20;;;;;;;23.86;36.08;99594.94;4360590;32;33935;-57
2023/03/22 00:18:41;;;;;;;6.50;4.25;;;;;;;23.85;36.11;99596.00;4359995;32;33030;-54
2023/03/22 00:21:13;;;;;;;7.50;4.28;;;;;;;23.85;36.15;99590.56;4360869;32;33807;-57
2023/03/22 00:23:41;;;;;;;8.15;4.93;;;;;;;23.83;36.17;99585.34;4367005;32;34522;-59
2023/03/22 00:26:09;;;;;;;7.53;3.90;;;;;;;23.84;36.21;99580.72;4350191;32;33920;-63
2023/03/22 00:28:37;;;;;;;8.57;3.90;;;;;;;23.83;36.30;99577.19;4359359;32;33342;-56
2023/03/22 00:31:04;;;;;;;5.82;3.80;;;;;;;23.84;36.30;99584.28;4375379;32;33141;-58
2023/03/22 00:33:34;;;;;;;7.28;3.92;;;;;;;23.83;36.40;99582.63;4363423;32;33645;-62
2023/03/22 00:36:04;;;;;;;6.28;3.47;;;;;;;23.81;36.46;99582.00;4371107;32;33946;-62
2023/03/22 00:38:37;;;;;;;7.75;3.53;;;;;;;23.83;36.53;99579.06;4360811;32;34470;-64
2023/03/22 00:41:11;;;;;;;8.43;4.20;;;;;;;23.83;36.52;99581.81;4360420;32;34231;-58
2023/03/22 00:43:39;;;;;;;7.37;4.22;;;;;;;23.83;36.52;99584.53;4360224;32;33846;-62
2023/03/22 00:46:07;;;;;;;7.95;4.18;;;;;;;23.82;36.55;99582.84;4361757;32;33228;-61
2023/03/22 00:48:34;;;;;;;7.05;4.00;;;;;;;23.80;36.61;99579.53;4361795;32;33418;-62
2023/03/22 00:51:02;;;;;;;6.55;3.65;;;;;;;23.82;36.70;99585.56;4361523;32;33801;-59
2023/03/22 00:53:31;;;;;;;7.65;4.03;;;;;;;23.79;36.71;99578.72;4359293;32;33023;-66
2023/03/22 00:55:59;;;;;;;6.12;3.70;;;;;;;23.78;36.79;99585.22;4360131;32;32752;-62
2023/03/22 00:58:28;;;;;;;7.90;3.87;;;;;;;23.79;36.80;99583.34;4373011;32;32282;-63
2023/03/22 01:00:56;;;;;;;9.55;3.92;;;;;;;23.78;36.80;99577.06;4360482;32;33827;-57
2023/03/22 01:03:24;;;;;;;8.07;3.53;;;;;;;23.78;36.78;99582.50;4360382;32;34836;-56
2023/03/22 01:05:54;;;;;;;8.20;4.12;;;;;;;23.78;36.74;99577.06;4360523;32;33929;-58
2023/03/22 01:08:22;;;;;;;9.02;3.83;;;;;;;23.77;36.82;99577.28;4348264;32;32807;-58
2023/03/22 01:10:50;;;;;;;6.15;3.47;;;;;;;23.76;36.82;99571.00;4360666;32;32869;-60
2023/03/22 01:13:18;;;;;;;6.10;3.80;;;;;;;23.78;36.80;99570.75;4361603;32;34103;-58
2023/03/22 01:15:48;;;;;;;6.55;3.70;;;;;;;23.77;36.89;99572.66;4361632;32;33818;-57
2023/03/22 01:18:16;;;;;;;10.82;3.87;;;;;;;23.75;36.87;99569.34;4360693;32;33202;-55
2023/03/22 01:20:44;;;;;;;6.30;3.70;;;;;;;23.75;36.82;99568.50;4361622;32;33770;-61
2023/03/22 01:23:11;;;;;;;5.72;3.22;;;;;;;23.75;36.78;99568.50;4361386;32;34853;-57
2023/03/22 01:25:39;;;;;;;6.20;3.60;;;;;;;23.74;36.77;99564.97;4361685;32;33939;-57
2023/03/22 01:28:07;;;;;;;7.55;4.07;;;;;;;23.73;36.78;99557.00;4360443;32;32514;-61
2023/03/22 01:30:35;;;;;;;9.25;3.58;;;;;;;23.73;36.80;99567.91;4347543;32;33786;-58
2023/03/22 01:33:04;;;;;;;6.32;3.37;;;;;;;23.73;36.86;99559.72;4359938;32;33226;-60
2023/03/22 01:35:33;;;;;;;5.85;3.42;;;;;;;23.73;36.84;99557.84;4360017;32;32667;-61
2023/03/22 01:38:00;;;;;;;6.37;3.50;;;;;;;23.73;36.88;99557.00;4360170;32;33356;-64
2023/03/22 01:40:28;;;;;;;5.72;3.47;;;;;;;23.73;36.90;99565.19;4361187;32;34212;-58
2023/03/22 01:42:56;;;;;;;6.40;3.55;;;;;;;23.71;36.96;99559.97;4361391;32;33575;-62
2023/03/22 01:45:34;;;;;;;6.28;3.72;;;;;;;23.71;37.01;99559.16;4360414;32;33917;-63
2023/03/22 01:48:20;;;;;;;7.35;3.40;;;;;;;23.71;36.98;99561.88;4360001;32;33093;-64
2023/03/22 01:51:02;;;;;;;7.70;3.83;;;;;;;23.72;36.98;99558.06;4360266;32;34504;-58
2023/03/22 01:53:32;;;;;;;9.75;3.55;;;;;;;23.70;36.99;99561.03;4360337;32;33914;-63
2023/03/22 01:56:01;;;;;;;6.65;3.53;;;;;;;23.68;37.07;99558.53;4360262;32;34125;-63
2023/03/22 01:58:29;;;;;;;7.82;3.83;;;;;;;23.68;37.07;99566.69;4335519;32;33216;-60
2023/03/22 02:00:57;;;;;;;9.35;3.90;;;;;;;23.68;37.07;99561.25;4359985;32;34639;-64
2023/03/22 02:03:34;;;;;;;6.40;3.80;;;;;;;23.66;37.08;99560.66;4359900;32;34781;-63
2023/03/22 02:06:02;;;;;;;6.12;3.50;;;;;;;23.67;37.07;99570.50;4360142;32;33833;-66
2023/03/22 02:08:30;;;;;;;5.70;3.55;;;;;;;23.67;37.08;99561.50;4360981;32;33329;-56
2023/03/22 02:10:59;;;;;;;6.85;3.65;;;;;;;23.67;37.04;99570.50;4347317;32;32997;-62
2023/03/22 02:13:46;;;;;;;6.35;3.92;;;;;;;23.67;37.04;99567.78;4361282;32;33817;-65
2023/03/22 02:16:28;;;;;;;6.45;3.45;;;;;;;23.70;37.01;99571.12;4359893;32;34677;-63
2023/03/22 02:19:07;;;;;;;5.28;3.25;;;;;;;23.67;37.01;99567.78;4359761;32;33869;-63
2023/03/22 02:22:02;;;;;;;6.10;3.65;;;;;;;23.66;37.04;99574.28;4359571;32;33722;-65
2023/03/22 02:24:31;;;;;;;6.10;3.15;;;;;;;23.66;37.06;99576.19;4359796;32;33498;-62
2023/03/22 02:27:01;;;;;;;8.63;3.42;;;;;;;23.65;37.06;99578.09;4360404;32;33811;-61
2023/03/22 02:29:44;;;;;;;7.40;3.90;;;;;;;23.65;37.02;99582.72;4360658;32;33453;-59
2023/03/22 02:32:14;;;;;;;5.10;3.30;;;;;;;23.66;37.00;99581.63;4359223;32;34662;-66
2023/03/22 02:35:01;;;;;;;4.78;3.10;;;;;;;23.64;37.04;99586.47;4360868;32;33599;-66
2023/03/22 02:37:32;;;;;;;5.35;3.00;;;;;;;23.63;37.03;99579.34;4360323;32;34469;-62
2023/03/22 02:40:05;;;;;;;6.15;3.85;;;;;;;23.63;37.10;99587.50;4359361;32;32489;-60
2023/03/22 02:42:42;;;;;;;6.40;3.87;;;;;;;23.62;37.13;99580.41;4360776;32;34537;-62
2023/03/22 02:45:11;;;;;;;5.75;3.53;;;;;;;23.63;37.13;99585.62;4361340;32;33950;-61
2023/03/22 02:47:50;;;;;;;5.97;3.10;;;;;;;23.63;37.09;99582.06;4361246;32;33850;-56
2023/03/22 02:50:20;;;;;;;7.55;3.25;;;;;;;23.64;37.08;99578.28;4361428;32;33463;-57
2023/03/22 02:53:03;;;;;;;6.40;3.47;;;;;;;23.63;37.09;99582.87;4362406;32;34261;-63
2023/03/22 02:55:37;;;;;;;5.53;3.30;;;;;;;23.63;37.07;99582.87;4362409;32;33623;-61
2023/03/22 02:58:14;;;;;;;6.68;3.33;;;;;;;23.63;37.05;99582.06;4361488;32;33852;-62
2023/03/22 03:00:42;;;;;;;5.70;3.08;;;;;;;23.61;37.08;99571.41;4361113;32;33030;-66
2023/03/22 03:03:10;;;;;;;4.82;2.80;;;;;;;23.61;37.11;99565.97;4361237;32;34777;-63
2023/03/22 03:05:42;;;;;;;5.72;3.08;;;;;;;23.62;37.12;99572.22;4361047;32;33735;-59
2023/03/22 03:08:12;;;;;;;6.12;3.40;;;;;;;23.60;37.13;99567.03;4361332;32;33968;-64
2023/03/22 03:10:39;;;;;;;8.13;3.30;;;;;;;23.59;37.15;99573.50;4361579;32;32431;-58
2023/03/22 03:13:12;;;;;;;5.72;3.12;;;;;;;23.60;37.14;99568.94;4348997;32;31795;-59
2023/03/22 03:15:42;;;;;;;7.62;2.75;;;;;;;23.56;37.20;99574.00;4373660;32;35027;-60
2023/03/22 03:18:18;;;;;;;5.72;3.55;;;;;;;23.58;37.20;99576.47;4361296;32;33445;-62
2023/03/22 03:21:13;;;;;;;6.18;3.10;;;;;;;23.59;37.15;99568.06;4361518;32;33366;-61
2023/03/22 03:23:48;;;;;;;5.20;3.08;;;;;;;23.61;37.13;99570.59;4362028;32;33849;-60
2023/03/22 03:26:27;;;;;;;5.97;3.47;;;;;;;23.57;37.15;99574.84;4362288;32;33682;-65
2023/03/22 03:29:07;;;;;;;6.57;2.90;;;;;;;23.57;37.20;99581.09;4362250;32;33471;-59
2023/03/22 03:31:45;;;;;;;5.10;2.90;;;;;;;23.56;37.21;99597.69;4362380;32;33415;-64
2023/03/22 03:34:15;;;;;;;7.70;2.90;;;;;;;23.57;37.25;99607.50;4361489;32;33936;-63
2023/03/22 03:36:53;;;;;;;5.12;2.92;;;;;;;23.55;37.22;99599.59;4360999;32;34135;-62
2023/03/22 03:39:21;;;;;;;6.25;3.28;;;;;;;23.57;37.20;99600.16;4361271;32;33916;-64
2023/03/22 03:41:51;;;;;;;5.37;3.08;;;;;;;23.57;37.16;99599.34;4360875;32;33348;-62
2023/03/22 03:44:19;;;;;;;7.37;2.78;;;;;;;23.56;37.16;99600.41;4361012;32;33843;-61
2023/03/22 03:46:46;;;;;;;6.50;3.37;;;;;;;23.56;37.13;99595.78;4360787;32;33657;-59
2023/03/22 03:49:15;;;;;;;4.55;2.75;;;;;;;23.56;37.14;99601.25;4361013;32;32811;-60
2023/03/22 03:51:47;;;;;;;4.82;2.87;;;;;;;23.55;37.13;99605.03;4360862;32;34048;-62
2023/03/22 03:54:15;;;;;;;6.00;3.58;;;;;;;23.56;37.12;99614.03;4360662;32;33869;-63
2023/03/22 03:56:43;;;;;;;5.32;2.95;;;;;;;23.54;37.12;99597.06;4362130;32;34166;-58
2023/03/22 03:59:11;;;;;;;5.70;2.90;;;;;;;23.54;37.13;99600.62;4348781;32;31214;-64
2023/03/22 04:01:38;;;;;;;4.43;2.95;;;;;;;23.53;37.15;99596.25;4360885;32;33413;-61
2023/03/22 04:04:08;;;;;;;4.65;2.95;;;;;;;23.54;37.16;99592.44;4362267;32;34653;-57
2023/03/22 04:06:37;;;;;;;7.40;3.20;;;;;;;23.54;37.14;99597.06;4361000;32;34725;-61
2023/03/22 04:09:07;;;;;;;5.15;3.00;;;;;;;23.54;37.14;99605.25;4362217;32;34347;-57
2023/03/22 04:11:37;;;;;;;5.18;3.08;;;;;;;23.53;37.14;99604.41;4361159;32;33421;-57
2023/03/22 04:14:05;;;;;;;6.37;3.03;;;;;;;23.53;37.15;99609.88;4361870;32;34685;-58
2023/03/22 04:16:33;;;;;;;5.32;2.90;;;;;;;23.53;37.14;99612.59;4360695;32;34703;-58
2023/03/22 04:19:00;;;;;;;3.85;2.47;;;;;;;23.54;37.13;99605.25;4362267;32;33930;-63
2023/03/22 04:21:28;;;;;;;6.10;3.30;;;;;;;23.53;37.11;99609.03;4362015;32;33132;-66
2023/03/22 04:23:56;;;;;;;5.50;2.90;;;;;;;23.52;37.12;99605.47;4360761;32;34622;-61
2023/03/22 04:26:24;;;;;;;5.32;2.80;;;;;;;23.53;37.13;99598.97;4362112;32;34125;-66
2023/03/22 04:28:53;;;;;;;4.93;3.12;;;;;;;23.52;37.14;99596.50;4362163;32;34587;-63
2023/03/22 04:31:21;;;;;;;5.00;2.95;;;;;;;23.51;37.16;99601.09;4348683;32;32508;-66
2023/03/22 04:33:53;;;;;;;5.25;2.90;;;;;;;23.52;37.15;99604.66;4362019;32;34562;-60
2023/03/22 04:36:22;;;;;;;5.40;2.70;;;;;;;23.51;37.14;99612.00;4360653;32;34785;-63
2023/03/22 04:38:51;;;;;;;5.87;3.07;;;;;;;23.53;37.11;99609.88;4373198;32;33334;-61
2023/03/22 04:41:19;;;;;;;7.65;2.80;;;;;;;23.51;37.08;99603.84;4373057;32;34496;-57
2023/03/22 04:43:49;;;;;;;4.18;2.72;;;;;;;23.50;37.09;99599.44;4361798;32;34679;-65
2023/03/22 04:46:20;;;;;;;6.00;2.90;;;;;;;23.51;37.16;99614.72;4360839;32;34685;-64
2023/03/22 04:48:48;;;;;;;4.95;2.70;;;;;;;23.51;37.16;99608.44;4362038;32;33484;-62
2023/03/22 04:51:15;;;;;;;9.48;3.17;;;;;;;23.50;37.15;99609.50;4360887;32;33090;-62
2023/03/22 04:53:43;;;;;;;4.43;2.85;;;;;;;23.48;37.10;99609.72;4360780;32;33555;-63
2023/03/22 04:56:12;;;;;;;7.60;2.78;;;;;;;23.48;37.01;99612.44;4360627;32;33945;-62
2023/03/22 04:58:41;;;;;;;6.05;3.00;;;;;;;23.48;36.99;99617.91;4348522;32;32882;-64
2023/03/22 05:01:09;;;;;;;5.07;3.00;;;;;;;23.47;36.94;99621.69;4361571;32;33005;-61
2023/03/22 05:03:38;;;;;;;7.65;3.47;;;;;;;23.46;36.88;99609.16;4360203;32;34795;-61
2023/03/22 05:06:06;;;;;;;5.60;3.17;;;;;;;23.48;36.86;99619.78;4361407;32;33576;-62
2023/03/22 05:08:34;;;;;;;5.15;3.20;;;;;;;23.45;36.87;99626.53;4348559;32;33908;-62
2023/03/22 05:11:07;;;;;;;5.28;3.10;;;;;;;23.45;36.84;99618.34;4360579;32;33228;-63
2023/03/22 05:13:36;;;;;;;5.03;2.97;;;;;;;23.44;36.81;99619.41;4360337;32;32841;-66
2023/03/22 05:16:04;;;;;;;5.55;3.10;;;;;;;23.42;36.77;99621.56;4360517;32;33150;-61
2023/03/22 05:18:33;;;;;;;6.62;3.12;;;;;;;23.41;36.75;99626.16;4348066;32;33882;-62
2023/03/22 05:21:02;;;;;;;6.10;2.95;;;;;;;23.42;36.70;99624.28;4360305;32;33135;-63
2023/03/22 05:23:30;;;;;;;5.37;3.10;;;;;;;23.40;36.71;99626.38;4360535;32;33949;-62
2023/03/22 05:26:00;;;;;;;5.65;2.95;;;;;;;23.40;36.69;99629.94;4336186;32;34246;-62
2023/03/22 05:28:28;;;;;;;4.75;3.12;;;;;;;23.39;36.63;99622.00;4361821;32;33813;-62
2023/03/22 05:30:56;;;;;;;6.45;3.22;;;;;;;23.40;36.59;99627.22;4347822;32;34168;-62
2023/03/22 05:33:26;;;;;;;4.70;3.03;;;;;;;23.40;36.57;99642.72;4360240;32;33848;-62
2023/03/22 05:35:54;;;;;;;4.47;2.90;;;;;;;23.40;36.55;99648.16;4360256;32;33543;-64
2023/03/22 05:38:23;;;;;;;5.57;2.90;;;;;;;23.40;36.53;99635.37;4347901;32;32830;-64
2023/03/22 05:40:51;;;;;;;5.80;3.25;;;;;;;23.39;36.52;99624.72;4361464;32;33147;-63
2023/03/22 05:43:18;;;;;;;5.10;3.30;;;;;;;23.39;36.50;99628.28;4347955;32;33934;-61
2023/03/22 05:45:47;;;;;;;6.15;2.90;;;;;;;23.38;36.51;99625.78;4359893;32;33870;-62
2023/03/22 05:48:17;;;;;;;4.78;2.90;;;;;;;23.38;36.49;99637.50;4361445;32;33961;-62
2023/03/22 05:50:45;;;;;;;4.65;3.05;;;;;;;23.37;36.48;99633.13;4360097;32;34184;-62
2023/03/22 05:53:13;;;;;;;7.80;2.97;;;;;;;23.37;36.47;99640.47;4361063;32;33924;-63
2023/03/22 05:55:41;;;;;;;6.57;3.53;;;;;;;23.37;36.46;99643.19;4360078;32;33556;-62
2023/03/22 05:58:09;;;;;;;7.80;3.17;;;;;;;23.37;36.47;99638.59;4361068;32;33361;-61
2023/03/22 06:00:37;;;;;;;5.43;3.15;;;;;;;23.37;36.47;99641.31;4361045;32;33455;-62
2023/03/22 06:03:08;;;;;;;5.10;3.03;;;;;;;23.38;36.44;99642.97;4359847;32;33946;-61
2023/03/22 06:05:37;;;;;;;11.98;3.00;;;;;;;23.38;36.44;99648.41;4361255;32;33933;-62
2023/03/22 06:08:05;;;;;;;7.82;2.60;;;;;;;23.39;36.37;99657.41;4360959;32;33785;-64
2023/03/22 06:10:34;;;;;;;5.35;2.92;;;;;;;23.38;36.36;99663.91;4359756;32;34195;-62
2023/03/22 06:13:02;;;;;;;4.85;3.08;;;;;;;23.37;36.37;99660.38;4359388;32;33773;-61
2023/03/22 06:15:30;;;;;;;4.80;2.95;;;;;;;23.36;36.33;99655.12;4359928;32;33365;-67
2023/03/22 06:17:58;;;;;;;7.75;2.97;;;;;;;23.35;36.35;99658.91;4361556;32;33789;-62
2023/03/22 06:20:26;;;;;;;5.87;3.15;;;;;;;23.35;36.31;99656.19;4361698;32;32223;-62
2023/03/22 06:22:54;;;;;;;12.05;3.03;;;;;;;23.35;36.30;99658.91;4363089;32;33304;-64
2023/03/22 06:25:22;;;;;;;10.15;3.17;;;;;;;23.36;36.35;99663.28;4361603;32;33897;-62
2023/03/22 06:27:50;;;;;;;5.87;3.05;;;;;;;23.35;36.32;99665.19;4361435;32;34710;-63
2023/03/22 06:30:18;;;;;;;8.30;3.50;;;;;;;23.36;36.31;99666.88;4362886;32;34111;-59
2023/03/22 06:32:48;;;;;;;6.60;3.65;;;;;;;23.35;36.32;99669.81;4360118;32;33827;-63
2023/03/22 06:35:15;;;;;;;6.25;3.17;;;;;;;23.36;36.31;99675.03;4347066;32;34143;-60
2023/03/22 06:37:44;;;;;;;6.35;3.28;;;;;;;23.36;36.31;99685.06;4345091;33;33575;-59
2023/03/22 06:40:12;;;;;;;21.33;3.20;;;;;;;23.35;36.31;99664.34;4345506;33;34199;-61
2023/03/22 06:42:40;;;;;;;7.70;3.08;;;;;;;23.35;36.32;99664.34;4357899;32;32906;-58
2023/03/22 06:45:08;;;;;;;6.70;3.22;;;;;;;23.35;36.36;99675.25;4345979;33;34713;-65
2023/03/22 06:47:36;;;;;;;7.80;3.50;;;;;;;23.33;36.38;99678.22;4347174;33;33448;-58
2023/03/22 06:50:04;;;;;;;6.43;3.42;;;;;;;23.33;36.40;99680.09;4347564;33;33406;-60
2023/03/22 06:52:33;;;;;;;8.57;3.20;;;;;;;23.34;36.39;99679.03;4347261;33;33859;-58
2023/03/22 06:55:02;;;;;;;8.15;3.20;;;;;;;23.34;36.37;99673.59;4347879;33;33872;-63
2023/03/22 06:57:29;;;;;;;9.65;3.42;;;;;;;23.33;36.38;99661.06;4346474;33;33661;-66
2023/03/22 06:59:57;;;;;;;5.05;3.08;;;;;;;23.33;36.37;99666.50;4346210;33;32825;-62
2023/03/22 07:02:25;;;;;;;7.20;3.80;;;;;;;23.32;36.35;99673.84;4334485;33;34036;-61
2023/03/22 07:04:53;;;;;;;11.68;3.33;;;;;;;23.31;36.36;99687.66;4346134;32;33622;-64
2023/03/22 07:07:21;;;;;;;5.43;3.10;;;;;;;23.29;36.34;99689.78;4348377;32;33376;-67
2023/03/22 07:09:49;;;;;;;6.62;3.37;;;;;;;23.31;36.32;99693.94;4362398;32;34103;-67
2023/03/22 07:12:17;;;;;;;6.57;2.90;;;;;;;23.29;36.32;99693.34;4373769;32;33681;-64
2023/03/22 07:14:46;;;;;;;6.12;2.97;;;;;;;23.29;36.33;99693.34;4362620;32;33866;-66
2023/03/22 07:17:15;;;;;;;6.90;3.20;;;;;;;23.29;36.30;99689.78;4362521;32;34318;-70
2023/03/22 07:19:43;;;;;;;7.07;2.92;;;;;;;23.28;36.29;99691.69;4362712;32;33194;-64
2023/03/22 07:22:11;;;;;;;11.88;2.95;;;;;;;23.28;36.29;99686.25;4362483;32;33779;-61
2023/03/22 07:24:39;;;;;;;9.65;3.15;;;;;;;23.29;36.26;99692.50;4360828;32;33011;-63
2023/03/22 07:27:22;;;;;;;8.82;3.35;;;;;;;23.27;36.25;99700.06;4360556;32;33164;-67
2023/03/22 07:29:50;;;;;;;5.22;2.85;;;;;;;23.27;36.22;99695.47;4362147;32;33303;-62
2023/03/22 07:32:18;;;;;;;7.20;3.00;;;;;;;23.27;36.23;99698.19;4362479;32;34441;-65
2023/03/22 07:34:49;;;;;;;7.10;3.83;;;;;;;23.27;36.21;99700.91;4362503;32;34801;-63
2023/03/22 07:37:17;;;;;;;6.97;3.20;;;;;;;23.26;36.20;99695.69;4361044;32;34566;-69
2023/03/22 07:39:45;;;;;;;6.25;3.20;;;;;;;23.26;36.20;99696.50;4361393;32;34116;-68
2023/03/22 07:42:12;;;;;;;5.07;2.78;;;;;;;23.24;36.21;99704.09;4361191;32;33991;-62
2023/03/22 07:44:46;;;;;;;5.80;3.20;;;;;;;23.25;36.20;99700.28;4361124;32;33294;-68
2023/03/22 07:47:16;;;;;;;6.50;2.75;;;;;;;23.25;36.15;99692.12;4349327;32;33629;-67
2023/03/22 07:50:02;;;;;;;5.65;2.78;;;;;;;23.25;36.13;99691.31;4360787;32;33530;-68
2023/03/22 07:52:30;;;;;;;7.35;3.00;;;;;;;23.25;36.10;99689.41;4362272;32;33847;-65
2023/03/22 07:54:58;;;;;;;5.68;3.30;;;;;;;23.26;36.06;99698.41;4362083;32;34535;-60
2023/03/22 07:57:25;;;;;;;6.50;3.17;;;;;;;23.26;36.08;99701.13;4360726;32;33949;-60
2023/03/22 07:59:53;;;;;;;5.50;2.90;;;;;;;23.28;36.04;99693.56;4361200;32;33312;-59
2023/03/22 08:02:23;;;;;;;4.80;2.97;;;;;;;23.29;36.00;99687.06;4360880;32;33523;-60
2023/03/22 08:04:53;;;;;;;6.50;2.87;;;;;;;23.29;35.98;99684.34;4360974;32;33861;-59
2023/03/22 08:07:26;;;;;;;5.07;2.90;;;;;;;23.30;35.99;99686.00;4361972;32;34560;-60
2023/03/22 08:09:53;;;;;;;4.68;2.80;;;;;;;23.29;35.99;99682.44;4360985;32;32982;-60
2023/03/22 08:12:21;;;;;;;4.85;3.08;;;;;;;23.31;35.98;99685.75;4360870;32;34068;-58
2023/03/22 08:14:52;;;;;;;6.07;2.77;;;;;;;23.30;35.98;99692.28;4360969;32;33914;-60
2023/03/22 08:17:20;;;;;;;6.18;2.85;;;;;;;23.33;35.95;99693.72;4348390;32;33702;-59
2023/03/22 08:19:49;;;;;;;4.40;2.72;;;;;;;23.33;35.97;99694.53;4361077;32;33466;-61
2023/03/22 08:22:17;;;;;;;6.43;2.95;;;;;;;23.34;36.08;99700.81;4348812;32;33820;-58
2023/03/22 08:24:47;;;;;;;6.43;2.85;;;;;;;23.36;36.08;99704.13;4348680;32;34920;-66
2023/03/22 08:27:14;;;;;;;5.22;2.97;;;;;;;23.37;36.11;99703.94;4360877;32;33929;-60
2023/03/22 08:29:44;;;;;;;7.57;2.92;;;;;;;23.36;36.15;99702.28;4355609;32;33352;-66
2023/03/22 08:32:12;;;;;;;7.57;2.75;;;;;;;23.37;36.18;99701.19;4343616;32;33921;-60
2023/03/22 08:34:40;;;;;;;5.35;2.67;;;;;;;23.39;36.21;99699.06;4331350;33;33952;-67
2023/03/22 08:37:07;;;;;;;5.47;3.20;;;;;;;23.41;36.23;99701.59;4340159;33;33789;-71
2023/03/22 08:39:35;;;;;;;4.45;2.80;;;;;;;23.41;36.26;99701.59;4344889;33;34082;-60
2023/03/22 08:42:04;;;;;;;5.35;2.80;;;;;;;23.42;36.27;99706.78;4334141;33;34239;-69
2023/03/22 08:44:32;;;;;;;7.55;2.75;;;;;;;23.42;36.26;99704.06;4347273;33;34806;-59
2023/03/22 08:47:00;;;;;;;5.35;2.62;;;;;;;23.44;36.30;99714.72;4346962;33;33572;-67
2023/03/22 08:49:30;;;;;;;8.13;2.67;;;;;;;23.46;36.37;99711.78;4346872;33;33464;-61
2023/03/22 08:51:58;;;;;;;11.07;2.60;;;;;;;23.48;36.41;99713.22;4346756;33;33742;-63
2023/03/22 08:54:31;;;;;;;5.75;3.08;;;;;;;23.49;36.50;99709.41;4345745;33;33965;-72
2023/03/22 08:57:03;;;;;;;5.60;2.70;;;;;;;23.49;36.54;99703.16;4346775;33;33730;-62
2023/03/22 08:59:32;;;;;;;6.62;3.00;;;;;;;23.51;36.60;99706.50;4332943;33;33573;-59
2023/03/22 09:02:00;;;;;;;7.57;3.00;;;;;;;23.52;36.63;99699.97;4348972;32;32689;-60
2023/03/22 09:04:28;;;;;;;5.65;2.90;;;;;;;23.52;36.66;99706.25;4360203;32;33919;-72
2023/03/22 09:06:56;;;;;;;6.32;3.10;;;;;;;23.53;36.71;99699.72;4360160;32;34727;-68
2023/03/22 09:09:23;;;;;;;4.40;2.70;;;;;;;23.55;36.75;99702.22;4361567;32;33459;-61
2023/03/22 09:11:51;;;;;;;8.10;2.70;;;;;;;23.55;36.77;99705.81;4361591;32;34504;-60
2023/03/22 09:14:20;;;;;;;6.30;2.70;;;;;;;23.56;36.81;99701.19;4360461;32;33819;-64
2023/03/22 09:16:47;;;;;;;4.78;2.65;;;;;;;23.56;36.83;99710.19;4348351;32;34566;-66
2023/03/22 09:19:15;;;;;;;7.75;2.78;;;;;;;23.57;36.83;99709.09;4360389;32;33442;-65
2023/03/22 09:21:44;;;;;;;5.55;2.78;;;;;;;23.57;36.86;99711.00;4361742;32;34649;-61
2023/03/22 09:24:12;;;;;;;7.12;2.95;;;;;;;23.57;36.83;99709.09;4361503;32;33794;-61
2023/03/22 09:26:39;;;;;;;6.28;2.55;;;;;;;23.57;36.77;99703.66;4348265;32;33807;-65
2023/03/22 09:29:07;;;;;;;8.25;3.20;;;;;;;23.57;36.65;99694.66;4357321;32;33777;-63
2023/03/22 09:31:34;;;;;;;4.82;2.90;;;;;;;23.58;36.60;99699.03;4333640;33;34312;-60
2023/03/22 09:34:03;;;;;;;6.07;2.97;;;;;;;23.57;36.64;99691.94;4345527;33;33854;-58
2023/03/22 09:36:31;;;;;;;7.28;3.03;;;;;;;23.57;36.60;99700.94;4352673;32;34565;-60
2023/03/22 09:38:58;;;;;;;7.20;2.70;;;;;;;23.57;36.55;99700.94;4360326;32;34113;-61
2023/03/22 09:41:40;;;;;;;5.47;2.80;;;;;;;23.57;36.54;99692.78;4361358;32;33632;-65
2023/03/22 09:44:14;;;;;;;6.80;3.15;;;;;;;23.58;36.53;99696.31;4348185;32;33968;-61
2023/03/22 09:46:45;;;;;;;6.10;3.03;;;;;;;23.57;36.56;99692.78;4356827;32;34517;-64
2023/03/22 09:49:15;;;;;;;6.22;2.87;;;;;;;23.56;36.67;99693.84;4357370;32;33128;-65
2023/03/22 09:51:44;;;;;;;6.57;2.78;;;;;;;23.56;36.64;99688.37;4356992;32;33442;-64
2023/03/22 09:54:32;;;;;;;6.47;2.80;;;;;;;23.56;36.60;99690.28;4357163;32;33746;-63
2023/03/22 09:57:20;;;;;;;8.45;3.37;;;;;;;23.58;36.58;99697.16;4343582;33;34253;-67
2023/03/22 10:00:10;;;;;;;11.73;3.30;;;;;;;23.58;36.57;99696.31;4344987;33;33473;-63
2023/03/22 10:02:53;;;;;;;8.60;3.30;;;;;;;23.56;36.65;99702.00;4371286;32;34719;-65
2023/03/22 10:05:37;;;;;;;7.03;3.17;;;;;;;23.55;36.75;99697.63;4361027;32;34560;-65
2023/03/22 10:08:39;;;;;;;7.78;3.20;;;;;;;23.54;36.78;99693.22;4359613;32;34674;-63
2023/03/22 10:11:13;;;;;;;13.65;3.22;;;;;;;23.54;36.79;99693.22;4359514;32;33317;-64
2023/03/22 10:13:50;;;;;;;10.20;3.65;;;;;;;23.52;36.81;99691.81;4347779;32;33970;-62
2023/03/22 10:16:32;;;;;;;10.30;3.60;;;;;;;23.52;36.81;99684.47;4347327;32;33728;-64
2023/03/22 10:19:16;;;;;;;9.13;3.00;;;;;;;23.52;36.80;99687.19;4348413;32;33859;-63
2023/03/22 10:21:44;;;;;;;9.77;3.15;;;;;;;23.50;36.79;99689.31;4360871;32;33636;-63
2023/03/22 10:24:22;;;;;;;7.25;2.85;;;;;;;23.50;36.79;99692.03;4347275;32;34625;-62
2023/03/22 10:26:50;;;;;;;9.20;3.12;;;;;;;23.51;36.77;99688.25;4347016;32;34034;-63
2023/03/22 10:29:34;;;;;;;7.57;3.17;;;;;;;23.50;36.79;99685.75;4359577;32;33087;-63
2023/03/22 10:32:26;;;;;;;9.48;3.42;;;;;;;23.50;36.76;99683.88;4359314;32;33185;-65
2023/03/22 10:34:55;;;;;;;6.45;3.15;;;;;;;23.51;36.79;99685.53;4371584;32;33393;-62
2023/03/22 10:37:24;;;;;;;6.60;3.15;;;;;;;23.48;36.84;99683.25;4359452;32;34121;-66
2023/03/22 10:39:53;;;;;;;6.65;3.30;;;;;;;23.48;36.87;99679.69;4347056;32;33228;-66
2023/03/22 10:42:26;;;;;;;7.07;3.03;;;;;;;23.49;36.90;99684.09;4347072;32;33338;-63
2023/03/22 10:45:06;;;;;;;6.20;3.17;;;;;;;23.47;36.99;99689.75;4347415;32;34342;-66
2023/03/22 10:47:41;;;;;;;9.43;3.12;;;;;;;23.49;37.01;99690.34;4358649;32;33527;-62
2023/03/22 10:50:36;;;;;;;6.82;2.83;;;;;;;23.48;37.08;99687.87;4371424;32;33418;-61
2023/03/22 10:53:14;;;;;;;8.20;2.97;;;;;;;23.51;37.06;99682.81;4357814;32;33460;-63
2023/03/22 10:55:42;;;;;;;6.97;3.03;;;;;;;23.49;37.06;99663.13;4371510;32;33853;-62
2023/03/22 10:58:11;;;;;;;6.45;3.10;;;;;;;23.48;37.10;99679.69;4334824;32;33315;-61
2023/03/22 11:00:49;;;;;;;7.72;3.15;;;;;;;23.48;37.09;99657.91;4352172;32;216349;-62
2023/03/22 11:03:26;;;;;;;9.10;3.12;;;;;;;23.47;37.11;99654.38;4348463;32;34143;-62
2023/03/22 11:06:10;;;;;;;5.32;2.70;;;;;;;23.47;37.11;99670.72;4362410;32;33816;-62
2023/03/22 11:08:39;;;;;;;7.50;3.37;;;;;;;23.45;37.14;99670.09;4361188;32;33475;-62
2023/03/22 11:11:14;;;;;;;6.68;3.47;;;;;;;23.45;37.03;99647.47;4362182;32;33918;-62
2023/03/22 11:13:42;;;;;;;8.85;3.22;;;;;;;23.43;37.00;99643.09;4348839;32;33758;-61
2023/03/22 11:16:09;;;;;;;5.72;2.92;;;;;;;23.42;36.93;99646.88;4361126;32;33299;-61
2023/03/22 11:18:37;;;;;;;6.07;3.03;;;;;;;23.42;36.93;99640.63;4349019;32;35423;-63
2023/03/22 11:21:06;;;;;;;6.75;3.72;;;;;;;23.41;36.87;99642.50;4348791;32;33379;-61
2023/03/22 11:23:34;;;;;;;7.85;3.50;;;;;;;23.40;36.80;99631.81;4348937;32;32952;-62
2023/03/22 11:26:10;;;;;;;10.63;3.50;;;;;;;23.40;36.79;99645.44;4361250;32;33841;-61
2023/03/22 11:28:49;;;;;;;5.25;3.45;;;;;;;23.40;36.75;99624.50;4361432;32;34633;-61
2023/03/22 11:31:17;;;;;;;9.85;4.40;;;;;;;23.39;36.74;99627.44;4348880;32;33563;-62
2023/03/22 11:33:59;;;;;;;5.60;3.55;;;;;;;23.37;36.70;99618.69;4348994;32;34081;-61
2023/03/22 11:36:27;;;;;;;4.78;3.08;;;;;;;23.38;36.56;99615.72;4367778;32;33516;-61
2023/03/22 11:38:58;;;;;;;9.52;3.75;;;;;;;23.36;36.54;99615.16;4351476;32;32913;-63
2023/03/22 11:41:28;;;;;;;6.25;3.22;;;;;;;23.36;36.49;99628.75;4363654;32;33631;-63
2023/03/22 11:46:54;;;;;;;7.85;4.72;;;;;;;23.35;36.49;99602.56;4361016;32;34100;-62
2023/03/22 11:49:23;;;;;;;6.05;3.62;;;;;;;23.33;36.45;99603.88;4349727;32;34011;-61
2023/03/22 11:51:50;;;;;;;7.30;4.35;;;;;;;23.31;36.40;99609.53;4361292;32;32966;-61
2023/03/22 11:54:30;;;;;;;7.12;3.80;;;;;;;23.32;36.32;99603.06;4348528;32;34142;-62